createdAt,value
2023-05-06T00:00:11.027Z,100.00
2023-05-06T00:02:43.014Z,100.00
2023-05-06T00:05:10.241Z,100.00
2023-05-06T00:07:37.317Z,100.00
2023-05-06T00:10:04.912Z,100.00
2023-05-06T00:12:31.743Z,100.00
2023-05-06T00:14:58.742Z,100.00
2023-05-06T00:17:25.713Z,100.00
2023-05-06T00:19:52.580Z,100.00
2023-05-06T00:22:19.650Z,100.00
2023-05-06T00:24:46.552Z,100.00
2023-05-06T00:27:13.648Z,100.00
2023-05-06T00:29:40.683Z,100.00
2023-05-06T00:32:07.682Z,100.00
2023-05-06T00:34:34.801Z,100.00
2023-05-06T00:37:01.757Z,100.00
2023-05-06T00:39:31.152Z,100.00
2023-05-06T00:42:02.410Z,100.00
2023-05-06T00:44:30.146Z,100.00
2023-05-06T00:46:59.292Z,100.00
2023-05-06T00:49:26.630Z,100.00
2023-05-06T00:51:54.960Z,100.00
2023-05-06T00:54:25.012Z,100.00
2023-05-06T00:56:52.081Z,100.00
2023-05-06T00:59:19.477Z,100.00
2023-05-06T01:01:47.252Z,100.00
2023-05-06T01:04:14.300Z,100.00
2023-05-06T01:07:08.305Z,100.00
2023-05-06T01:09:47.025Z,100.00
2023-05-06T01:12:34.087Z,100.00
2023-05-06T01:15:33.644Z,100.00
2023-05-06T01:18:04.467Z,100.00
2023-05-06T01:20:33.247Z,100.00
2023-05-06T01:23:02.813Z,100.00
2023-05-06T01:25:32.296Z,100.00
2023-05-06T01:27:59.197Z,100.00
2023-05-06T01:30:36.038Z,100.00
2023-05-06T01:33:11.136Z,100.00
2023-05-06T01:35:56.276Z,100.00
2023-05-06T01:38:53.035Z,100.00
2023-05-06T01:41:21.445Z,100.00
2023-05-06T01:43:49.577Z,100.00
2023-05-06T01:46:21.047Z,100.00
2023-05-06T01:48:55.702Z,100.00
2023-05-06T01:51:24.138Z,100.00
2023-05-06T01:53:51.602Z,100.00
2023-05-06T01:56:18.680Z,100.00
2023-05-06T01:58:46.214Z,100.00
2023-05-06T02:01:13.641Z,100.00
2023-05-06T02:03:41.236Z,100.00
2023-05-06T02:06:08.666Z,100.00
2023-05-06T02:08:40.272Z,100.00
2023-05-06T02:11:09.255Z,100.00
2023-05-06T02:13:36.182Z,100.00
2023-05-06T02:16:04.014Z,100.00
2023-05-06T02:18:32.504Z,100.00
2023-05-06T02:20:59.960Z,100.00
2023-05-06T02:23:27.018Z,100.00
2023-05-06T02:25:54.172Z,100.00
2023-05-06T02:28:21.115Z,100.00
2023-05-06T02:30:49.187Z,100.00
2023-05-06T02:33:16.234Z,100.00
2023-05-06T02:35:44.272Z,100.00
2023-05-06T02:38:11.196Z,100.00
2023-05-06T02:40:38.282Z,100.00
2023-05-06T02:43:05.237Z,100.00
2023-05-06T02:45:34.293Z,100.00
2023-05-06T02:48:01.577Z,100.00
2023-05-06T02:50:28.448Z,100.00
2023-05-06T02:52:55.319Z,100.00
2023-05-06T02:55:23.086Z,100.00
2023-05-06T02:57:50.480Z,100.00
2023-05-06T03:00:18.023Z,100.00
2023-05-06T03:02:45.262Z,100.00
2023-05-06T03:05:12.387Z,100.00
2023-05-06T03:07:39.994Z,100.00
2023-05-06T03:10:09.090Z,100.00
2023-05-06T03:12:38.524Z,100.00
2023-05-06T03:15:06.502Z,100.00
2023-05-06T03:17:33.549Z,100.00
2023-05-06T03:20:03.811Z,100.00
2023-05-06T03:22:31.799Z,100.00
2023-05-06T03:24:58.899Z,100.00
2023-05-06T03:27:27.426Z,100.00
2023-05-06T03:29:59.202Z,100.00
2023-05-06T03:32:26.224Z,100.00
2023-05-06T03:34:53.166Z,100.00
2023-05-06T03:37:21.952Z,100.00
2023-05-06T03:39:53.240Z,100.00
2023-05-06T03:42:23.593Z,100.00
2023-05-06T03:44:50.889Z,100.00
2023-05-06T03:47:17.932Z,100.00
2023-05-06T03:49:45.547Z,100.00
2023-05-06T03:52:13.397Z,100.00
2023-05-06T03:54:40.361Z,100.00
2023-05-06T03:57:08.297Z,100.00
2023-05-06T03:59:36.051Z,100.00
2023-05-06T04:02:04.490Z,100.00
2023-05-06T04:04:35.709Z,100.00
2023-05-06T04:07:03.889Z,100.00
2023-05-06T04:09:33.002Z,100.00
2023-05-06T04:12:03.500Z,100.00
2023-05-06T04:14:32.147Z,100.00
2023-05-06T04:16:59.966Z,100.00
2023-05-06T04:19:27.431Z,100.00
2023-05-06T04:21:54.410Z,100.00
2023-05-06T04:24:21.517Z,100.00
2023-05-06T04:26:48.458Z,100.00
2023-05-06T04:29:16.345Z,100.00
2023-05-06T04:31:57.228Z,100.00
2023-05-06T04:34:27.932Z,100.00
2023-05-06T04:36:58.785Z,100.00
2023-05-06T04:39:32.292Z,100.00
2023-05-06T04:41:59.370Z,100.00
2023-05-06T04:44:34.546Z,100.00
2023-05-06T04:47:03.713Z,100.00
2023-05-06T04:49:31.043Z,100.00
2023-05-06T04:51:58.065Z,100.00
2023-05-06T04:54:25.588Z,100.00
2023-05-06T04:56:52.530Z,100.00
2023-05-06T04:59:20.817Z,100.00
2023-05-06T05:01:48.084Z,100.00
2023-05-06T05:04:16.183Z,100.00
2023-05-06T05:06:43.192Z,100.00
2023-05-06T05:09:10.750Z,100.00
2023-05-06T05:11:40.700Z,100.00
2023-05-06T05:14:08.222Z,100.00
2023-05-06T05:16:35.678Z,100.00
2023-05-06T05:19:04.347Z,100.00
2023-05-06T05:21:33.624Z,100.00
2023-05-06T05:24:01.142Z,100.00
2023-05-06T05:26:28.666Z,100.00
2023-05-06T05:28:58.105Z,100.00
2023-05-06T05:31:25.072Z,100.00
2023-05-06T05:33:53.949Z,100.00
2023-05-06T05:36:23.423Z,100.00
2023-05-06T05:38:53.610Z,100.00
2023-05-06T05:41:23.058Z,100.00
2023-05-06T05:43:50.079Z,100.00
2023-05-06T05:46:17.109Z,100.00
2023-05-06T05:48:46.560Z,100.00
2023-05-06T05:51:14.013Z,100.00
2023-05-06T05:53:41.839Z,100.00
2023-05-06T05:56:10.898Z,100.00
2023-05-06T05:58:38.703Z,100.00
2023-05-06T06:01:06.325Z,100.00
2023-05-06T06:03:33.695Z,100.00
2023-05-06T06:06:01.307Z,100.00
2023-05-06T06:08:29.893Z,100.00
2023-05-06T06:10:58.439Z,100.00
2023-05-06T06:13:32.236Z,100.00
2023-05-06T06:16:01.109Z,100.00
2023-05-06T06:18:28.135Z,100.00
2023-05-06T06:20:54.994Z,100.00
2023-05-06T06:23:22.421Z,100.00
2023-05-06T06:25:49.645Z,100.00
2023-05-06T06:28:16.519Z,100.00
2023-05-06T06:30:45.211Z,100.00
2023-05-06T06:33:12.224Z,100.00
2023-05-06T06:35:40.310Z,100.00
2023-05-06T06:38:07.272Z,100.00
2023-05-06T06:40:34.221Z,100.00
2023-05-06T06:43:01.410Z,100.00
2023-05-06T06:45:53.587Z,100.00
2023-05-06T06:48:20.794Z,100.00
2023-05-06T06:50:47.770Z,100.00
2023-05-06T06:53:14.679Z,100.00
2023-05-06T06:55:45.657Z,100.00
2023-05-06T06:58:12.763Z,100.00
2023-05-06T07:00:39.655Z,100.00
2023-05-06T07:03:06.950Z,100.00
2023-05-06T07:05:33.986Z,100.00
2023-05-06T07:08:01.131Z,100.00
2023-05-06T07:10:28.099Z,100.00
2023-05-06T07:12:55.031Z,100.00
2023-05-06T07:15:22.141Z,100.00
2023-05-06T07:17:49.080Z,100.00
2023-05-06T07:20:16.326Z,100.00
2023-05-06T07:22:43.853Z,100.00
2023-05-06T07:25:10.964Z,100.00
2023-05-06T07:27:38.131Z,100.00
2023-05-06T07:30:05.703Z,100.00
2023-05-06T07:32:32.966Z,100.00
2023-05-06T07:35:00.026Z,100.00
2023-05-06T07:37:27.012Z,100.00
2023-05-06T07:39:54.634Z,100.00
2023-05-06T07:42:22.012Z,100.00
2023-05-06T07:44:48.966Z,100.00
2023-05-06T07:47:31.779Z,100.00
2023-05-06T07:50:00.759Z,100.00
2023-05-06T07:52:27.988Z,100.00
2023-05-06T07:54:55.070Z,100.00
2023-05-06T07:57:22.088Z,100.00
2023-05-06T07:59:50.766Z,100.00
2023-05-06T08:02:17.900Z,100.00
2023-05-06T08:04:45.710Z,100.00
2023-05-06T08:07:12.874Z,100.00
2023-05-06T08:09:39.793Z,100.00
2023-05-06T08:12:07.516Z,100.00
2023-05-06T08:14:34.356Z,100.00
2023-05-06T08:17:01.509Z,100.00
2023-05-06T08:19:28.660Z,100.00
2023-05-06T08:21:55.880Z,100.00
2023-05-06T08:24:22.925Z,100.00
2023-05-06T08:26:49.897Z,100.00
2023-05-06T08:29:16.798Z,100.00
2023-05-06T08:31:44.076Z,100.00
2023-05-06T08:34:10.922Z,100.00
2023-05-06T08:36:37.965Z,100.00
2023-05-06T08:39:06.137Z,100.00
2023-05-06T08:41:34.560Z,100.00
2023-05-06T08:44:03.543Z,100.00
2023-05-06T08:46:31.688Z,100.00
2023-05-06T08:48:59.920Z,100.00
2023-05-06T08:51:29.559Z,100.00
2023-05-06T08:54:04.147Z,100.00
2023-05-06T08:56:33.877Z,100.00
2023-05-06T08:59:01.401Z,100.00
2023-05-06T09:01:29.174Z,100.00
2023-05-06T09:03:58.162Z,100.00
2023-05-06T09:06:25.527Z,100.00
2023-05-06T09:08:53.108Z,100.00
2023-05-06T09:11:25.841Z,100.00
2023-05-06T09:14:17.412Z,100.00
2023-05-06T09:16:46.915Z,100.00
2023-05-06T09:19:14.941Z,100.00
2023-05-06T09:21:44.113Z,100.00
2023-05-06T09:24:13.835Z,100.00
2023-05-06T09:26:43.234Z,100.00
2023-05-06T09:29:11.073Z,100.00
2023-05-06T09:31:42.893Z,100.00
2023-05-06T09:34:10.752Z,100.00
2023-05-06T09:36:38.081Z,100.00
2023-05-06T09:39:05.871Z,100.00
2023-05-06T09:41:33.342Z,100.00
2023-05-06T09:44:00.967Z,100.00
2023-05-06T09:46:28.222Z,100.00
2023-05-06T09:48:57.298Z,100.00
2023-05-06T09:51:24.360Z,100.00
2023-05-06T09:53:52.622Z,100.00
2023-05-06T09:56:21.461Z,100.00
2023-05-06T09:58:49.218Z,100.00
2023-05-06T10:01:25.148Z,100.00
2023-05-06T10:04:02.812Z,100.00
2023-05-06T10:06:32.757Z,100.00
2023-05-06T10:09:01.204Z,98.98
2023-05-06T10:11:31.473Z,98.24
2023-05-06T10:14:01.256Z,97.71
2023-05-06T10:16:29.325Z,96.50
2023-05-06T10:18:57.636Z,100.00
2023-05-06T10:21:27.811Z,100.00
2023-05-06T10:24:04.382Z,100.00
2023-05-06T10:26:32.311Z,100.00
2023-05-06T10:29:02.909Z,100.00
2023-05-06T10:31:31.788Z,99.33
2023-05-06T10:34:03.101Z,100.00
2023-05-06T10:36:33.760Z,99.86
2023-05-06T10:39:03.379Z,96.94
2023-05-06T10:41:32.039Z,100.00
2023-05-06T10:44:00.241Z,100.00
2023-05-06T10:46:31.155Z,100.00
2023-05-06T10:49:11.482Z,100.00
2023-05-06T10:51:48.036Z,100.00
2023-05-06T10:54:18.123Z,97.65
2023-05-06T10:56:48.271Z,98.08
2023-05-06T10:59:16.646Z,98.47
2023-05-06T11:01:45.110Z,92.92
2023-05-06T11:04:16.501Z,90.86
2023-05-06T11:06:46.671Z,93.73
2023-05-06T11:09:26.936Z,93.75
2023-05-06T11:12:03.700Z,91.83
2023-05-06T11:14:38.097Z,91.82
2023-05-06T11:17:07.075Z,93.34
2023-05-06T11:19:35.770Z,92.44
2023-05-06T11:22:04.831Z,92.06
2023-05-06T11:24:38.570Z,89.93
2023-05-06T11:27:05.975Z,89.50
2023-05-06T11:29:33.065Z,88.59
2023-05-06T11:32:00.324Z,88.49
2023-05-06T11:34:29.876Z,88.23
2023-05-06T11:37:02.468Z,89.45
2023-05-06T11:39:38.768Z,89.54
2023-05-06T11:42:07.979Z,88.24
2023-05-06T11:44:37.229Z,86.16
2023-05-06T11:47:09.557Z,89.00
2023-05-06T11:49:38.784Z,83.99
2023-05-06T11:52:06.110Z,82.21
2023-05-06T11:54:39.532Z,83.96
2023-05-06T11:57:06.531Z,87.14
2023-05-06T11:59:35.409Z,88.44
2023-05-06T12:02:07.751Z,92.20
2023-05-06T12:04:41.749Z,92.26
2023-05-06T12:07:11.202Z,89.73
2023-05-06T12:09:47.316Z,90.31
2023-05-06T12:12:20.057Z,90.69
2023-05-06T12:14:47.757Z,92.58
2023-05-06T12:17:15.648Z,93.05
2023-05-06T12:19:42.740Z,95.83
2023-05-06T12:22:15.142Z,88.05
2023-05-06T12:24:42.180Z,87.02
2023-05-06T12:27:09.284Z,85.19
2023-05-06T12:29:36.334Z,84.87
2023-05-06T12:32:10.887Z,82.24
2023-05-06T12:34:40.475Z,83.19
2023-05-06T12:37:08.816Z,83.28
2023-05-06T12:39:37.390Z,83.72
2023-05-06T12:42:04.901Z,87.92
2023-05-06T12:44:33.819Z,91.03
2023-05-06T12:47:22.779Z,91.05
2023-05-06T12:50:01.154Z,89.89
2023-05-06T12:52:30.253Z,89.53
2023-05-06T12:54:57.780Z,92.15
2023-05-06T12:57:24.658Z,93.89
2023-05-06T12:59:52.584Z,93.52
2023-05-06T13:02:19.495Z,93.43
2023-05-06T13:04:47.101Z,92.19
2023-05-06T13:07:14.311Z,93.82
2023-05-06T13:09:41.526Z,95.45
2023-05-06T13:12:08.789Z,98.46
2023-05-06T13:14:37.821Z,100.00
2023-05-06T13:17:07.506Z,100.00
2023-05-06T13:19:35.014Z,100.00
2023-05-06T13:22:02.473Z,100.00
2023-05-06T13:24:30.071Z,100.00
2023-05-06T13:26:57.636Z,100.00
2023-05-06T13:29:24.877Z,100.00
2023-05-06T13:31:52.453Z,100.00
2023-05-06T13:34:19.340Z,100.00
2023-05-06T13:36:47.835Z,100.00
2023-05-06T13:39:16.257Z,100.00
2023-05-06T13:41:46.137Z,100.00
2023-05-06T13:44:14.062Z,100.00
2023-05-06T13:46:41.506Z,98.88
2023-05-06T13:49:09.087Z,98.24
2023-05-06T13:51:36.139Z,95.19
2023-05-06T13:54:03.949Z,90.72
2023-05-06T13:56:31.255Z,85.50
2023-05-06T13:58:58.442Z,86.83
2023-05-06T14:01:25.707Z,83.09
2023-05-06T14:03:52.713Z,84.01
2023-05-06T14:06:20.002Z,84.97
2023-05-06T14:08:47.357Z,83.82
2023-05-06T14:11:14.315Z,84.37
2023-05-06T14:13:41.304Z,80.83
2023-05-06T14:16:08.375Z,81.31
2023-05-06T14:18:35.561Z,79.25
2023-05-06T14:21:03.600Z,78.72
2023-05-06T14:23:30.545Z,82.45
2023-05-06T14:25:57.625Z,86.81
2023-05-06T14:28:24.564Z,86.67
2023-05-06T14:30:51.502Z,89.64
2023-05-06T14:33:18.628Z,88.45
2023-05-06T14:35:46.331Z,90.69
2023-05-06T14:38:13.352Z,93.25
2023-05-06T14:40:40.592Z,93.92
2023-05-06T14:43:07.783Z,93.39
2023-05-06T14:45:34.998Z,91.83
2023-05-06T14:48:02.449Z,91.64
2023-05-06T14:50:30.835Z,90.17
2023-05-06T14:52:57.964Z,88.66
2023-05-06T14:55:25.948Z,89.64
2023-05-06T14:57:52.903Z,88.70
2023-05-06T15:00:20.641Z,91.98
2023-05-06T15:02:47.737Z,91.59
2023-05-06T15:05:15.154Z,94.04
2023-05-06T15:07:42.162Z,96.70
2023-05-06T15:10:09.340Z,100.00
2023-05-06T15:12:37.395Z,100.00
2023-05-06T15:15:05.190Z,100.00
2023-05-06T15:17:32.749Z,100.00
2023-05-06T15:20:00.175Z,100.00
2023-05-06T15:22:27.172Z,100.00
2023-05-06T15:24:54.054Z,100.00
2023-05-06T15:27:21.167Z,100.00
2023-05-06T15:29:48.469Z,100.00
2023-05-06T15:32:15.384Z,100.00
2023-05-06T15:34:42.925Z,100.00
2023-05-06T15:37:10.572Z,100.00
2023-05-06T15:39:40.554Z,100.00
2023-05-06T15:42:07.684Z,100.00
2023-05-06T15:44:34.583Z,100.00
2023-05-06T15:47:01.831Z,100.00
2023-05-06T15:52:00.841Z,100.00
2023-05-06T15:54:28.810Z,100.00
2023-05-06T15:56:56.567Z,100.00
2023-05-06T15:59:23.743Z,100.00
2023-05-06T16:02:25.562Z,100.00
2023-05-06T16:04:38.126Z,100.00
2023-05-06T16:07:05.206Z,100.00
2023-05-06T16:09:32.146Z,100.00
2023-05-06T16:11:59.360Z,100.00
2023-05-06T16:14:26.638Z,100.00
2023-05-06T16:16:54.873Z,100.00
2023-05-06T16:19:22.064Z,100.00
2023-05-06T16:21:49.048Z,100.00
2023-05-06T16:24:16.175Z,100.00
2023-05-06T16:26:43.402Z,99.83
2023-05-06T16:29:10.735Z,99.29
2023-05-06T16:31:38.204Z,92.51
2023-05-06T16:34:05.362Z,92.24
2023-05-06T16:36:32.380Z,93.96
2023-05-06T16:38:59.708Z,91.85
2023-05-06T16:41:27.055Z,89.22
2023-05-06T16:43:54.168Z,86.47
2023-05-06T16:46:22.729Z,88.10
2023-05-06T16:48:52.237Z,88.59
2023-05-06T16:51:19.594Z,83.55
2023-05-06T16:53:46.782Z,83.46
2023-05-06T16:56:13.776Z,86.41
2023-05-06T16:58:40.787Z,84.85
2023-05-06T17:01:08.219Z,87.19
2023-05-06T17:03:37.968Z,86.30
2023-05-06T17:06:05.354Z,87.43
2023-05-06T17:08:36.399Z,87.87
2023-05-06T17:11:06.989Z,92.79
2023-05-06T17:13:35.003Z,94.55
2023-05-06T17:16:02.065Z,94.75
2023-05-06T17:18:29.025Z,95.34
2023-05-06T17:20:57.552Z,96.88
2023-05-06T17:23:25.322Z,100.00
2023-05-06T17:25:52.284Z,100.00
2023-05-06T17:28:19.278Z,100.00
2023-05-06T17:30:47.107Z,100.00
2023-05-06T17:33:14.162Z,100.00
2023-05-06T17:35:41.042Z,100.00
2023-05-06T17:38:08.350Z,100.00
2023-05-06T17:40:35.398Z,100.00
2023-05-06T17:43:02.289Z,100.00
2023-05-06T17:45:29.719Z,100.00
2023-05-06T17:47:57.025Z,100.00
2023-05-06T17:50:24.015Z,100.00
2023-05-06T17:52:52.979Z,100.00
2023-05-06T17:55:21.866Z,100.00
2023-05-06T17:57:49.476Z,100.00
2023-05-06T18:00:17.190Z,100.00
2023-05-06T18:02:44.928Z,100.00
2023-05-06T18:05:13.343Z,100.00
2023-05-06T18:07:41.179Z,100.00
2023-05-06T18:10:08.811Z,100.00
2023-05-06T18:12:35.761Z,100.00
2023-05-06T18:15:03.309Z,100.00
2023-05-06T18:17:30.799Z,100.00
2023-05-06T18:19:57.998Z,100.00
2023-05-06T18:22:25.381Z,100.00
2023-05-06T18:25:07.240Z,100.00
2023-05-06T18:27:34.385Z,100.00
2023-05-06T18:30:01.367Z,100.00
2023-05-06T18:32:28.312Z,100.00
2023-05-06T18:34:55.453Z,100.00
2023-05-06T18:37:22.333Z,100.00
2023-05-06T18:39:49.234Z,100.00
2023-05-06T18:42:16.163Z,100.00
2023-05-06T18:44:43.785Z,100.00
2023-05-06T18:47:10.905Z,100.00
2023-05-06T18:49:37.848Z,100.00
2023-05-06T18:52:05.441Z,100.00
2023-05-06T18:54:32.434Z,100.00
2023-05-06T18:57:01.161Z,100.00
2023-05-06T18:59:28.456Z,100.00
2023-05-06T19:01:55.445Z,100.00
2023-05-06T19:04:22.429Z,100.00
2023-05-06T19:06:51.667Z,100.00
2023-05-06T19:09:18.728Z,100.00
2023-05-06T19:11:46.048Z,100.00
2023-05-06T19:14:13.521Z,100.00
2023-05-06T19:16:40.776Z,100.00
2023-05-06T19:19:07.905Z,100.00
2023-05-06T19:21:35.415Z,100.00
2023-05-06T19:24:02.418Z,100.00
2023-05-06T19:26:29.647Z,100.00
2023-05-06T19:28:57.103Z,100.00
2023-05-06T19:31:24.371Z,100.00
2023-05-06T19:33:51.489Z,100.00
2023-05-06T19:36:18.431Z,100.00
2023-05-06T19:38:45.404Z,100.00
2023-05-06T19:41:13.251Z,100.00
2023-05-06T19:43:42.230Z,100.00
2023-05-06T19:46:10.056Z,100.00
2023-05-06T19:48:39.024Z,100.00
2023-05-06T19:51:07.246Z,100.00
2023-05-06T19:53:34.645Z,100.00
2023-05-06T19:56:12.099Z,100.00
2023-05-06T19:58:39.658Z,100.00
2023-05-06T20:01:06.682Z,100.00
2023-05-06T20:03:33.765Z,100.00
2023-05-06T20:06:01.205Z,100.00
2023-05-06T20:08:28.113Z,100.00
2023-05-06T20:10:55.333Z,100.00
2023-05-06T20:13:22.515Z,100.00
2023-05-06T20:15:49.986Z,100.00
2023-05-06T20:18:17.051Z,100.00
2023-05-06T20:20:44.021Z,100.00
2023-05-06T20:23:10.887Z,100.00
2023-05-06T20:25:37.816Z,100.00
2023-05-06T20:28:06.534Z,100.00
2023-05-06T20:30:34.263Z,100.00
2023-05-06T20:33:01.794Z,100.00
2023-05-06T20:35:29.107Z,100.00
2023-05-06T20:37:56.935Z,100.00
2023-05-06T20:40:24.639Z,100.00
2023-05-06T20:42:52.195Z,100.00
2023-05-06T20:45:20.083Z,100.00
2023-05-06T20:47:47.457Z,100.00
2023-05-06T20:50:17.414Z,100.00
2023-05-06T20:52:46.263Z,100.00
2023-05-06T20:55:14.965Z,100.00
2023-05-06T20:57:43.483Z,100.00
2023-05-06T21:00:11.553Z,100.00
2023-05-06T21:02:41.430Z,100.00
2023-05-06T21:05:09.609Z,100.00
2023-05-06T21:07:36.768Z,100.00
2023-05-06T21:10:05.979Z,100.00
2023-05-06T21:12:33.570Z,100.00
2023-05-06T21:15:01.196Z,100.00
2023-05-06T21:17:29.207Z,100.00
2023-05-06T21:19:56.603Z,100.00
2023-05-06T21:22:24.475Z,100.00
2023-05-06T21:24:52.147Z,100.00
2023-05-06T21:27:19.566Z,100.00
2023-05-06T21:29:46.876Z,100.00
2023-05-06T21:32:13.923Z,100.00
2023-05-06T21:34:41.091Z,100.00
2023-05-06T21:37:08.175Z,100.00
2023-05-06T21:39:35.672Z,100.00
2023-05-06T21:42:02.678Z,100.00
2023-05-06T21:44:29.671Z,100.00
2023-05-06T21:46:56.797Z,100.00
2023-05-06T21:49:24.124Z,100.00
2023-05-06T21:51:51.316Z,100.00
2023-05-06T21:54:18.264Z,100.00
2023-05-06T21:56:45.750Z,100.00
2023-05-06T21:59:13.735Z,100.00
2023-05-06T22:01:41.361Z,100.00
2023-05-06T22:04:13.124Z,100.00
2023-05-06T22:06:40.637Z,100.00
2023-05-06T22:09:09.843Z,100.00
2023-05-06T22:11:38.578Z,100.00
2023-05-06T22:14:06.965Z,100.00
2023-05-06T22:16:35.804Z,100.00
2023-05-06T22:19:04.956Z,100.00
2023-05-06T22:21:33.696Z,100.00
2023-05-06T22:24:01.943Z,100.00
2023-05-06T22:26:29.735Z,100.00
2023-05-06T22:28:57.171Z,100.00
2023-05-06T22:31:24.984Z,100.00
2023-05-06T22:33:58.022Z,100.00
2023-05-06T22:36:29.660Z,100.00
2023-05-06T22:38:56.567Z,100.00
2023-05-06T22:41:23.396Z,100.00
2023-05-06T22:43:50.276Z,100.00
2023-05-06T22:46:17.381Z,100.00
2023-05-06T22:48:47.104Z,100.00
2023-05-06T22:51:16.057Z,100.00
2023-05-06T22:53:43.239Z,100.00
2023-05-06T22:56:10.409Z,100.00
2023-05-06T22:58:37.574Z,100.00
2023-05-06T23:01:04.692Z,100.00
2023-05-06T23:03:31.650Z,100.00
2023-05-06T23:05:58.958Z,100.00
2023-05-06T23:08:26.043Z,100.00
2023-05-06T23:10:52.987Z,100.00
2023-05-06T23:13:20.045Z,100.00
2023-05-06T23:15:47.115Z,100.00
2023-05-06T23:18:14.185Z,100.00
2023-05-06T23:20:41.355Z,100.00
2023-05-06T23:23:10.769Z,100.00
2023-05-06T23:25:37.932Z,100.00
2023-05-06T23:28:05.088Z,100.00
2023-05-06T23:30:31.985Z,100.00
2023-05-06T23:32:58.878Z,100.00
2023-05-06T23:35:26.765Z,100.00
2023-05-06T23:37:53.742Z,100.00
2023-05-06T23:40:20.724Z,100.00
2023-05-06T23:42:47.581Z,100.00
2023-05-06T23:45:15.034Z,100.00
2023-05-06T23:47:42.238Z,100.00
2023-05-06T23:50:09.804Z,100.00
2023-05-06T23:52:38.274Z,100.00
2023-05-06T23:55:05.957Z,100.00
2023-05-06T23:57:32.836Z,100.00
2023-05-06T23:59:59.774Z,100.00
